ホーチミン の空港の天気 - METARとTAF

タンソンニャット国際空港 (ホーチミン) ( VVTS / SGN ) - ベトナム ホーチミン市
飛行場実況気象(Metar)
観測時間10/20 01:00 ICT (10/19 18:00 UTC)
風向・風速東 3m/s
視程10km以上
天気現象
全天の4割程度の雲 雲底高度 460m
全天の8割程度の雲 雲底高度 1520m
気温25℃
湿度94%
気圧1009hPa
METARVVTS 191800Z 08005KT 9999 SCT015 BKN050 25/24 Q1009 NOSIG
過去の天気等 Google飛行場航空写真 Wunderground天気予報

過去48時間のMETAR

飛行場予報(TAF)
発表時間: 10/20 00:00 ICT (10/19 17:00 UTC)
予報対象時間: 20日1時 ICT ~ 21日7時 ICT
風向・風速東 3m/s
視程10km以上
全天の4割程度の雲 雲底高度 460m
全天の4割程度の雲 雲底高度 1520m
20日2時 ICT ~ 20日3時 ICT に徐々に
風向・風速不定 1m/s
視程3000m
天気現象もや
20日7時 ICT ~ 20日8時 ICT に徐々に
風向・風速東 5m/s
視程10km以上
天気現象運行に影響にある天気現象が終了
20日14時 ICT ~ 20日18時 ICT に一時的に
視程5000m
天気現象雷雨
全天の8割程度の雲 雲底高度 400m
少しの積乱雲 雲底高度 460m
TAF VVTS 191700Z 1918/2024 09006KT 9999 SCT015 SCT050
BECMG 1919/1920 VRB02KT 3000 BR
BECMG 2000/2001 10010KT 9999 NSW
TEMPO 2007/2011 5000 TSRA BKN013 FEW015CB